Alexandria Bay, New York
Current Conditions -  °F | °C
As of 9:58 AM on Sunday 23 Nov 2014 (Local Time) from KGTB Reporting Station
Overcast Overcast  
Wind Chill: 36°   Ceiling: 2000
Heat Index: 41°   Visibility: 10mi
Dew Point: 40°   Wind: 7mph
Humidity: 98%   Direction: 220°SW
Pressure: 30.03"   Gusts: NA
Location:  44.34°N, 75.92°W
Report Text: KGTB 231458Z AUTO 22006KT 10SM OVC020 05/05 A3003 RMK AO2 SLP175 T00490046 50007
Loading
Personal Weather Stations






























Interactive Weather Map New forecast layout! Learn more

10-Day Weather Forecast

Advertisements
Track Severe Weather on mobile